sensor_id;sensor_type;location;lat;lon;timestamp;temperature;humidity
65462;DHT22;53236;43.666;18.444;2022-11-20T00:01:22;12.00;99.90
65462;DHT22;53236;43.666;18.444;2022-11-20T00:03:49;12.00;99.90
65462;DHT22;53236;43.666;18.444;2022-11-20T00:06:17;12.00;99.90
65462;DHT22;53236;43.666;18.444;2022-11-20T00:08:44;11.90;99.90
65462;DHT22;53236;43.666;18.444;2022-11-20T00:11:12;11.90;99.90
65462;DHT22;53236;43.666;18.444;2022-11-20T00:13:38;12.00;99.90
65462;DHT22;53236;43.666;18.444;2022-11-20T00:16:06;12.00;99.90
65462;DHT22;53236;43.666;18.444;2022-11-20T00:18:35;12.10;99.90
65462;DHT22;53236;43.666;18.444;2022-11-20T00:21:06;12.30;99.90
65462;DHT22;53236;43.666;18.444;2022-11-20T00:23:32;12.30;99.90
65462;DHT22;53236;43.666;18.444;2022-11-20T00:26:02;12.30;99.90
65462;DHT22;53236;43.666;18.444;2022-11-20T00:28:28;12.30;99.90
65462;DHT22;53236;43.666;18.444;2022-11-20T00:31:09;12.30;99.90
65462;DHT22;53236;43.666;18.444;2022-11-20T00:33:35;12.30;99.90
65462;DHT22;53236;43.666;18.444;2022-11-20T00:36:03;12.30;99.90
65462;DHT22;53236;43.666;18.444;2022-11-20T00:38:30;12.30;99.90
65462;DHT22;53236;43.666;18.444;2022-11-20T00:41:03;12.30;99.90
65462;DHT22;53236;43.666;18.444;2022-11-20T00:43:29;12.30;99.90
65462;DHT22;53236;43.666;18.444;2022-11-20T00:46:09;12.30;99.90
65462;DHT22;53236;43.666;18.444;2022-11-20T00:48:35;12.40;99.60
65462;DHT22;53236;43.666;18.444;2022-11-20T00:51:01;12.40;99.90
65462;DHT22;53236;43.666;18.444;2022-11-20T00:53:27;12.40;98.70
65462;DHT22;53236;43.666;18.444;2022-11-20T00:56:07;12.50;98.40
65462;DHT22;53236;43.666;18.444;2022-11-20T00:58:35;12.50;99.90
65462;DHT22;53236;43.666;18.444;2022-11-20T01:01:12;12.40;98.70
65462;DHT22;53236;43.666;18.444;2022-11-20T01:03:41;12.50;98.80
65462;DHT22;53236;43.666;18.444;2022-11-20T01:06:11;12.50;98.30
65462;DHT22;53236;43.666;18.444;2022-11-20T01:08:37;12.50;97.50
65462;DHT22;53236;43.666;18.444;2022-11-20T01:11:06;12.50;97.00
65462;DHT22;53236;43.666;18.444;2022-11-20T01:13:32;12.60;93.90
65462;DHT22;53236;43.666;18.444;2022-11-20T01:16:21;12.60;94.40
65462;DHT22;53236;43.666;18.444;2022-11-20T01:18:49;12.60;95.70
65462;DHT22;53236;43.666;18.444;2022-11-20T01:21:21;12.50;95.60
65462;DHT22;53236;43.666;18.444;2022-11-20T01:23:47;12.40;96.00
65462;DHT22;53236;43.666;18.444;2022-11-20T01:26:16;12.50;93.30
65462;DHT22;53236;43.666;18.444;2022-11-20T01:28:43;12.60;92.30
65462;DHT22;53236;43.666;18.444;2022-11-20T01:31:14;12.60;92.80
65462;DHT22;53236;43.666;18.444;2022-11-20T01:33:40;12.50;92.30
65462;DHT22;53236;43.666;18.444;2022-11-20T01:36:07;12.50;93.30
65462;DHT22;53236;43.666;18.444;2022-11-20T01:38:33;12.40;94.30
65462;DHT22;53236;43.666;18.444;2022-11-20T01:40:59;12.40;94.50
65462;DHT22;53236;43.666;18.444;2022-11-20T01:43:25;12.40;93.60
65462;DHT22;53236;43.666;18.444;2022-11-20T01:48:37;12.50;91.20
65462;DHT22;53236;43.666;18.444;2022-11-20T01:51:10;12.60;90.90
65462;DHT22;53236;43.666;18.444;2022-11-20T01:53:38;12.60;90.50
65462;DHT22;53236;43.666;18.444;2022-11-20T01:56:06;12.60;90.70
65462;DHT22;53236;43.666;18.444;2022-11-20T01:58:37;12.60;90.70
65462;DHT22;53236;43.666;18.444;2022-11-20T02:01:04;12.50;92.80
65462;DHT22;53236;43.666;18.444;2022-11-20T02:03:30;12.50;92.90
65462;DHT22;53236;43.666;18.444;2022-11-20T02:06:04;12.40;92.40
65462;DHT22;53236;43.666;18.444;2022-11-20T02:08:31;12.50;91.30
65462;DHT22;53236;43.666;18.444;2022-11-20T02:10:57;12.50;93.20
65462;DHT22;53236;43.666;18.444;2022-11-20T02:13:23;12.50;92.50
65462;DHT22;53236;43.666;18.444;2022-11-20T02:18:39;12.40;92.00
65462;DHT22;53236;43.666;18.444;2022-11-20T02:21:28;12.40;91.90
65462;DHT22;53236;43.666;18.444;2022-11-20T02:24:14;12.50;92.10
65462;DHT22;53236;43.666;18.444;2022-11-20T02:26:58;12.40;91.70
65462;DHT22;53236;43.666;18.444;2022-11-20T02:29:34;12.40;91.90
65462;DHT22;53236;43.666;18.444;2022-11-20T02:32:02;12.50;92.40
65462;DHT22;53236;43.666;18.444;2022-11-20T02:34:28;12.50;92.00
65462;DHT22;53236;43.666;18.444;2022-11-20T02:36:54;12.50;91.20
65462;DHT22;53236;43.666;18.444;2022-11-20T02:39:24;12.50;91.50
65462;DHT22;53236;43.666;18.444;2022-11-20T02:41:55;12.40;91.70
65462;DHT22;53236;43.666;18.444;2022-11-20T02:44:21;12.50;89.70
65462;DHT22;53236;43.666;18.444;2022-11-20T02:46:46;12.40;92.00
65462;DHT22;53236;43.666;18.444;2022-11-20T02:49:12;12.40;93.10
65462;DHT22;53236;43.666;18.444;2022-11-20T02:51:38;12.30;92.50
65462;DHT22;53236;43.666;18.444;2022-11-20T02:54:03;12.30;91.70
65462;DHT22;53236;43.666;18.444;2022-11-20T02:56:30;12.30;92.20
65462;DHT22;53236;43.666;18.444;2022-11-20T02:58:56;12.30;92.10
65462;DHT22;53236;43.666;18.444;2022-11-20T03:01:21;12.30;92.10
65462;DHT22;53236;43.666;18.444;2022-11-20T03:03:47;12.30;91.10
65462;DHT22;53236;43.666;18.444;2022-11-20T03:06:15;12.30;90.60
65462;DHT22;53236;43.666;18.444;2022-11-20T03:08:41;12.40;90.50
65462;DHT22;53236;43.666;18.444;2022-11-20T03:11:07;12.30;91.70
65462;DHT22;53236;43.666;18.444;2022-11-20T03:13:34;12.30;91.90
65462;DHT22;53236;43.666;18.444;2022-11-20T03:16:11;12.30;92.90
65462;DHT22;53236;43.666;18.444;2022-11-20T03:18:38;12.30;92.80
65462;DHT22;53236;43.666;18.444;2022-11-20T03:21:04;12.30;93.10
65462;DHT22;53236;43.666;18.444;2022-11-20T03:23:31;12.40;93.10
65462;DHT22;53236;43.666;18.444;2022-11-20T03:26:07;12.30;94.20
65462;DHT22;53236;43.666;18.444;2022-11-20T03:28:33;12.30;94.30
65462;DHT22;53236;43.666;18.444;2022-11-20T03:31:08;12.30;94.90
65462;DHT22;53236;43.666;18.444;2022-11-20T03:33:34;12.20;95.90
65462;DHT22;53236;43.666;18.444;2022-11-20T03:36:05;12.20;96.50
65462;DHT22;53236;43.666;18.444;2022-11-20T03:38:31;12.10;96.80
65462;DHT22;53236;43.666;18.444;2022-11-20T03:41:01;12.00;96.70
65462;DHT22;53236;43.666;18.444;2022-11-20T03:43:27;12.00;96.20
65462;DHT22;53236;43.666;18.444;2022-11-20T03:45:53;12.00;96.80
65462;DHT22;53236;43.666;18.444;2022-11-20T03:48:19;12.00;97.00
65462;DHT22;53236;43.666;18.444;2022-11-20T03:50:44;12.00;98.00
65462;DHT22;53236;43.666;18.444;2022-11-20T03:53:15;12.00;98.20
65462;DHT22;53236;43.666;18.444;2022-11-20T03:55:41;11.90;97.70
65462;DHT22;53236;43.666;18.444;2022-11-20T03:58:08;11.90;98.00
65462;DHT22;53236;43.666;18.444;2022-11-20T04:00:33;11.90;97.70
65462;DHT22;53236;43.666;18.444;2022-11-20T04:03:00;11.90;97.30
65462;DHT22;53236;43.666;18.444;2022-11-20T04:05:26;12.00;97.30
65462;DHT22;53236;43.666;18.444;2022-11-20T04:07:51;12.00;97.80
65462;DHT22;53236;43.666;18.444;2022-11-20T04:10:17;12.00;98.10
65462;DHT22;53236;43.666;18.444;2022-11-20T04:12:43;12.00;97.80
65462;DHT22;53236;43.666;18.444;2022-11-20T04:15:09;12.00;98.30
65462;DHT22;53236;43.666;18.444;2022-11-20T04:17:35;11.60;99.80
65462;DHT22;53236;43.666;18.444;2022-11-20T04:20:01;11.20;99.90
65462;DHT22;53236;43.666;18.444;2022-11-20T04:22:27;10.80;99.90
65462;DHT22;53236;43.666;18.444;2022-11-20T04:24:52;10.50;99.90
65462;DHT22;53236;43.666;18.444;2022-11-20T04:27:18;10.20;99.90
65462;DHT22;53236;43.666;18.444;2022-11-20T04:29:44;9.90;99.90
65462;DHT22;53236;43.666;18.444;2022-11-20T04:32:09;9.90;99.90
65462;DHT22;53236;43.666;18.444;2022-11-20T04:34:35;9.90;99.90
65462;DHT22;53236;43.666;18.444;2022-11-20T04:37:01;9.80;99.90
65462;DHT22;53236;43.666;18.444;2022-11-20T04:39:26;9.60;99.90
65462;DHT22;53236;43.666;18.444;2022-11-20T04:41:52;9.20;99.90
65462;DHT22;53236;43.666;18.444;2022-11-20T04:44:38;9.00;99.90
65462;DHT22;53236;43.666;18.444;2022-11-20T04:47:04;8.60;99.90
65462;DHT22;53236;43.666;18.444;2022-11-20T04:49:29;8.10;99.90
65462;DHT22;53236;43.666;18.444;2022-11-20T04:51:57;7.80;99.90
65462;DHT22;53236;43.666;18.444;2022-11-20T04:54:23;7.70;99.90
65462;DHT22;53236;43.666;18.444;2022-11-20T04:56:49;7.70;99.90
65462;DHT22;53236;43.666;18.444;2022-11-20T04:59:14;7.60;99.90
65462;DHT22;53236;43.666;18.444;2022-11-20T05:01:40;7.60;99.90
65462;DHT22;53236;43.666;18.444;2022-11-20T05:04:06;7.70;99.90
65462;DHT22;53236;43.666;18.444;2022-11-20T05:06:32;7.80;99.90
65462;DHT22;53236;43.666;18.444;2022-11-20T05:08:58;7.80;99.90
65462;DHT22;53236;43.666;18.444;2022-11-20T05:11:24;7.90;99.90
65462;DHT22;53236;43.666;18.444;2022-11-20T05:13:51;7.80;99.90
65462;DHT22;53236;43.666;18.444;2022-11-20T05:16:22;7.70;99.90
65462;DHT22;53236;43.666;18.444;2022-11-20T05:18:49;7.70;99.90
65462;DHT22;53236;43.666;18.444;2022-11-20T05:21:16;7.80;99.90
65462;DHT22;53236;43.666;18.444;2022-11-20T05:23:42;7.70;99.90
65462;DHT22;53236;43.666;18.444;2022-11-20T05:26:13;7.60;99.90
65462;DHT22;53236;43.666;18.444;2022-11-20T05:28:39;7.30;99.90
65462;DHT22;53236;43.666;18.444;2022-11-20T05:31:09;7.10;99.90
65462;DHT22;53236;43.666;18.444;2022-11-20T05:33:36;6.80;99.90
65462;DHT22;53236;43.666;18.444;2022-11-20T05:36:05;6.70;99.90
65462;DHT22;53236;43.666;18.444;2022-11-20T05:38:31;6.60;99.90
65462;DHT22;53236;43.666;18.444;2022-11-20T05:43:37;6.60;99.90
65462;DHT22;53236;43.666;18.444;2022-11-20T05:46:04;6.50;99.90
65462;DHT22;53236;43.666;18.444;2022-11-20T05:48:30;6.50;99.90
65462;DHT22;53236;43.666;18.444;2022-11-20T05:51:01;6.50;99.90
65462;DHT22;53236;43.666;18.444;2022-11-20T05:53:28;6.50;99.90
65462;DHT22;53236;43.666;18.444;2022-11-20T05:55:58;6.50;99.90
65462;DHT22;53236;43.666;18.444;2022-11-20T05:58:23;6.40;99.90
65462;DHT22;53236;43.666;18.444;2022-11-20T06:00:49;6.40;99.90
65462;DHT22;53236;43.666;18.444;2022-11-20T06:03:15;6.50;99.90
65462;DHT22;53236;43.666;18.444;2022-11-20T06:05:40;6.40;99.90
65462;DHT22;53236;43.666;18.444;2022-11-20T06:08:06;6.40;99.90
65462;DHT22;53236;43.666;18.444;2022-11-20T06:10:31;6.40;99.90
65462;DHT22;53236;43.666;18.444;2022-11-20T06:12:58;6.50;99.90
65462;DHT22;53236;43.666;18.444;2022-11-20T06:15:23;6.60;99.90
65462;DHT22;53236;43.666;18.444;2022-11-20T06:17:52;6.70;99.90
65462;DHT22;53236;43.666;18.444;2022-11-20T06:20:19;6.70;99.90
65462;DHT22;53236;43.666;18.444;2022-11-20T06:22:44;6.90;99.90
65462;DHT22;53236;43.666;18.444;2022-11-20T06:25:10;6.90;99.90
65462;DHT22;53236;43.666;18.444;2022-11-20T06:27:36;6.90;99.90
65462;DHT22;53236;43.666;18.444;2022-11-20T06:30:01;6.90;99.90
65462;DHT22;53236;43.666;18.444;2022-11-20T06:32:27;6.70;99.90
65462;DHT22;53236;43.666;18.444;2022-11-20T06:34:53;6.70;99.90
65462;DHT22;53236;43.666;18.444;2022-11-20T06:37:18;6.70;99.90
65462;DHT22;53236;43.666;18.444;2022-11-20T06:39:44;6.80;99.90
65462;DHT22;53236;43.666;18.444;2022-11-20T06:42:10;6.80;99.90
65462;DHT22;53236;43.666;18.444;2022-11-20T06:44:35;6.90;99.90
65462;DHT22;53236;43.666;18.444;2022-11-20T06:47:01;6.90;99.90
65462;DHT22;53236;43.666;18.444;2022-11-20T06:49:27;6.90;99.90
65462;DHT22;53236;43.666;18.444;2022-11-20T06:51:52;6.80;99.90
65462;DHT22;53236;43.666;18.444;2022-11-20T06:54:18;6.90;99.90
65462;DHT22;53236;43.666;18.444;2022-11-20T06:56:47;7.10;99.90
65462;DHT22;53236;43.666;18.444;2022-11-20T06:59:13;7.10;99.90
65462;DHT22;53236;43.666;18.444;2022-11-20T07:01:39;7.20;99.90
65462;DHT22;53236;43.666;18.444;2022-11-20T07:04:04;7.20;99.90
65462;DHT22;53236;43.666;18.444;2022-11-20T07:06:30;7.30;99.90
65462;DHT22;53236;43.666;18.444;2022-11-20T07:08:56;7.40;99.90
65462;DHT22;53236;43.666;18.444;2022-11-20T07:11:23;7.30;99.90
65462;DHT22;53236;43.666;18.444;2022-11-20T07:13:49;7.30;99.90
65462;DHT22;53236;43.666;18.444;2022-11-20T07:16:15;7.40;99.90
65462;DHT22;53236;43.666;18.444;2022-11-20T07:18:41;7.30;99.90
65462;DHT22;53236;43.666;18.444;2022-11-20T07:21:08;7.30;99.90
65462;DHT22;53236;43.666;18.444;2022-11-20T07:23:35;7.50;99.90
65462;DHT22;53236;43.666;18.444;2022-11-20T07:26:08;7.60;99.90
65462;DHT22;53236;43.666;18.444;2022-11-20T07:28:35;7.50;99.90
65462;DHT22;53236;43.666;18.444;2022-11-20T07:31:01;7.60;99.90
65462;DHT22;53236;43.666;18.444;2022-11-20T07:33:27;7.60;99.90
65462;DHT22;53236;43.666;18.444;2022-11-20T07:35:53;7.60;99.90
65462;DHT22;53236;43.666;18.444;2022-11-20T07:38:18;7.80;99.90
65462;DHT22;53236;43.666;18.444;2022-11-20T07:40:44;7.70;99.90
65462;DHT22;53236;43.666;18.444;2022-11-20T07:43:10;7.80;99.90
65462;DHT22;53236;43.666;18.444;2022-11-20T07:45:35;7.70;99.90
65462;DHT22;53236;43.666;18.444;2022-11-20T07:48:01;7.90;99.90
65462;DHT22;53236;43.666;18.444;2022-11-20T07:50:27;7.90;99.90
65462;DHT22;53236;43.666;18.444;2022-11-20T07:53:00;7.80;99.90
65462;DHT22;53236;43.666;18.444;2022-11-20T07:55:26;7.80;99.90
65462;DHT22;53236;43.666;18.444;2022-11-20T07:57:55;7.90;99.90
65462;DHT22;53236;43.666;18.444;2022-11-20T08:00:22;7.80;99.90
65462;DHT22;53236;43.666;18.444;2022-11-20T08:02:48;7.90;99.90
65462;DHT22;53236;43.666;18.444;2022-11-20T08:05:13;8.00;99.90
65462;DHT22;53236;43.666;18.444;2022-11-20T08:07:40;7.90;99.90
65462;DHT22;53236;43.666;18.444;2022-11-20T08:10:08;7.80;99.90
65462;DHT22;53236;43.666;18.444;2022-11-20T08:12:34;7.80;99.90
65462;DHT22;53236;43.666;18.444;2022-11-20T08:15:18;7.90;99.90
65462;DHT22;53236;43.666;18.444;2022-11-20T08:17:44;7.90;99.90
65462;DHT22;53236;43.666;18.444;2022-11-20T08:20:10;7.60;99.90
65462;DHT22;53236;43.666;18.444;2022-11-20T08:22:35;7.60;99.90
65462;DHT22;53236;43.666;18.444;2022-11-20T08:25:01;7.80;99.90
65462;DHT22;53236;43.666;18.444;2022-11-20T08:27:27;8.00;99.90
65462;DHT22;53236;43.666;18.444;2022-11-20T08:29:52;8.10;99.90
65462;DHT22;53236;43.666;18.444;2022-11-20T08:32:18;8.10;99.90
65462;DHT22;53236;43.666;18.444;2022-11-20T08:34:44;8.30;99.90
65462;DHT22;53236;43.666;18.444;2022-11-20T08:37:09;8.60;99.90
65462;DHT22;53236;43.666;18.444;2022-11-20T08:39:35;8.80;99.90
65462;DHT22;53236;43.666;18.444;2022-11-20T08:42:01;8.90;99.90
65462;DHT22;53236;43.666;18.444;2022-11-20T08:44:26;8.80;99.90
65462;DHT22;53236;43.666;18.444;2022-11-20T08:46:52;9.00;99.90
65462;DHT22;53236;43.666;18.444;2022-11-20T08:49:18;9.20;99.90
65462;DHT22;53236;43.666;18.444;2022-11-20T08:51:44;9.30;99.90
65462;DHT22;53236;43.666;18.444;2022-11-20T08:54:10;9.30;99.90
65462;DHT22;53236;43.666;18.444;2022-11-20T08:56:36;9.60;99.90
65462;DHT22;53236;43.666;18.444;2022-11-20T08:59:01;9.80;99.90
65462;DHT22;53236;43.666;18.444;2022-11-20T09:01:28;10.00;99.90
65462;DHT22;53236;43.666;18.444;2022-11-20T09:03:57;10.00;99.90
65462;DHT22;53236;43.666;18.444;2022-11-20T09:06:25;10.00;99.90
65462;DHT22;53236;43.666;18.444;2022-11-20T09:08:54;10.20;99.90
65462;DHT22;53236;43.666;18.444;2022-11-20T09:11:20;10.30;99.90
65462;DHT22;53236;43.666;18.444;2022-11-20T09:13:46;10.50;99.90
65462;DHT22;53236;43.666;18.444;2022-11-20T09:16:11;12.20;99.90
65462;DHT22;53236;43.666;18.444;2022-11-20T09:18:37;14.60;94.60
65462;DHT22;53236;43.666;18.444;2022-11-20T09:21:05;15.40;91.70
65462;DHT22;53236;43.666;18.444;2022-11-20T09:23:34;15.80;88.90
65462;DHT22;53236;43.666;18.444;2022-11-20T09:26:04;16.60;78.60
65462;DHT22;53236;43.666;18.444;2022-11-20T09:28:30;16.10;74.30
65462;DHT22;53236;43.666;18.444;2022-11-20T09:30:55;15.70;79.50
65462;DHT22;53236;43.666;18.444;2022-11-20T09:33:22;15.50;81.80
65462;DHT22;53236;43.666;18.444;2022-11-20T09:35:47;15.30;81.20
65462;DHT22;53236;43.666;18.444;2022-11-20T09:38:13;14.90;85.90
65462;DHT22;53236;43.666;18.444;2022-11-20T09:40:53;15.20;84.50
65462;DHT22;53236;43.666;18.444;2022-11-20T09:43:27;15.10;89.30
65462;DHT22;53236;43.666;18.444;2022-11-20T09:46:29;14.20;91.20
65462;DHT22;53236;43.666;18.444;2022-11-20T09:51:46;12.20;99.90
65462;DHT22;53236;43.666;18.444;2022-11-20T09:54:22;11.60;99.90
65462;DHT22;53236;43.666;18.444;2022-11-20T09:57:01;11.10;99.90
65462;DHT22;53236;43.666;18.444;2022-11-20T09:59:33;10.70;99.90
65462;DHT22;53236;43.666;18.444;2022-11-20T10:02:01;10.30;99.90
65462;DHT22;53236;43.666;18.444;2022-11-20T10:04:31;10.10;99.90
65462;DHT22;53236;43.666;18.444;2022-11-20T10:07:24;10.00;99.90
65462;DHT22;53236;43.666;18.444;2022-11-20T10:09:55;9.80;99.90
65462;DHT22;53236;43.666;18.444;2022-11-20T10:15:12;9.20;99.90
65462;DHT22;53236;43.666;18.444;2022-11-20T10:23:37;8.90;99.90
65462;DHT22;53236;43.666;18.444;2022-11-20T10:26:16;8.90;99.90
65462;DHT22;53236;43.666;18.444;2022-11-20T10:29:09;8.70;99.90
65462;DHT22;53236;43.666;18.444;2022-11-20T10:31:38;8.70;99.90
65462;DHT22;53236;43.666;18.444;2022-11-20T10:34:45;8.60;99.90
65462;DHT22;53236;43.666;18.444;2022-11-20T10:37:19;8.40;99.90
65462;DHT22;53236;43.666;18.444;2022-11-20T10:40:02;8.60;99.90
65462;DHT22;53236;43.666;18.444;2022-11-20T10:42:52;8.70;99.90
65462;DHT22;53236;43.666;18.444;2022-11-20T10:47:54;8.60;99.90
65462;DHT22;53236;43.666;18.444;2022-11-20T10:50:22;8.50;99.90
65462;DHT22;53236;43.666;18.444;2022-11-20T10:55:50;8.50;99.90
65462;DHT22;53236;43.666;18.444;2022-11-20T11:01:24;8.90;99.90
65462;DHT22;53236;43.666;18.444;2022-11-20T11:03:52;8.90;99.90
65462;DHT22;53236;43.666;18.444;2022-11-20T11:06:34;9.00;99.90
65462;DHT22;53236;43.666;18.444;2022-11-20T11:09:06;9.00;99.90
65462;DHT22;53236;43.666;18.444;2022-11-20T11:11:34;8.90;99.90
65462;DHT22;53236;43.666;18.444;2022-11-20T11:14:14;9.00;99.90
65462;DHT22;53236;43.666;18.444;2022-11-20T11:16:55;8.90;99.90
65462;DHT22;53236;43.666;18.444;2022-11-20T11:19:21;8.80;99.90
65462;DHT22;53236;43.666;18.444;2022-11-20T11:21:57;8.70;99.90
65462;DHT22;53236;43.666;18.444;2022-11-20T11:24:27;8.60;99.90
65462;DHT22;53236;43.666;18.444;2022-11-20T11:26:59;8.60;99.90
65462;DHT22;53236;43.666;18.444;2022-11-20T11:29:29;8.50;99.90
65462;DHT22;53236;43.666;18.444;2022-11-20T11:32:12;8.60;99.90
65462;DHT22;53236;43.666;18.444;2022-11-20T11:34:38;8.60;99.90
65462;DHT22;53236;43.666;18.444;2022-11-20T11:37:11;8.70;99.90
65462;DHT22;53236;43.666;18.444;2022-11-20T11:39:41;8.70;99.90
65462;DHT22;53236;43.666;18.444;2022-11-20T11:42:11;8.70;99.90
65462;DHT22;53236;43.666;18.444;2022-11-20T11:44:44;8.70;99.90
65462;DHT22;53236;43.666;18.444;2022-11-20T11:47:44;8.80;99.90
65462;DHT22;53236;43.666;18.444;2022-11-20T11:50:18;8.70;99.90
65462;DHT22;53236;43.666;18.444;2022-11-20T12:03:42;8.70;99.90
65462;DHT22;53236;43.666;18.444;2022-11-20T12:06:14;8.70;99.90
65462;DHT22;53236;43.666;18.444;2022-11-20T12:08:53;8.60;99.90
65462;DHT22;53236;43.666;18.444;2022-11-20T12:11:40;8.90;99.90
65462;DHT22;53236;43.666;18.444;2022-11-20T12:16:42;8.90;99.90
65462;DHT22;53236;43.666;18.444;2022-11-20T12:19:11;8.70;99.90
65462;DHT22;53236;43.666;18.444;2022-11-20T12:29:54;8.30;99.90
65462;DHT22;53236;43.666;18.444;2022-11-20T12:46:04;8.40;99.90
65462;DHT22;53236;43.666;18.444;2022-11-20T12:51:29;8.50;99.90
65462;DHT22;53236;43.666;18.444;2022-11-20T12:54:02;8.60;99.90
65462;DHT22;53236;43.666;18.444;2022-11-20T12:56:41;8.40;99.90
65462;DHT22;53236;43.666;18.444;2022-11-20T13:02:10;8.10;99.90
65462;DHT22;53236;43.666;18.444;2022-11-20T13:07:26;8.20;99.90
65462;DHT22;53236;43.666;18.444;2022-11-20T13:09:53;8.70;99.90
65462;DHT22;53236;43.666;18.444;2022-11-20T13:20:17;9.00;99.90
65462;DHT22;53236;43.666;18.444;2022-11-20T13:22:51;9.20;99.90
65462;DHT22;53236;43.666;18.444;2022-11-20T13:25:33;9.20;99.90
65462;DHT22;53236;43.666;18.444;2022-11-20T13:28:03;9.20;99.90
65462;DHT22;53236;43.666;18.444;2022-11-20T13:30:30;9.30;99.90
65462;DHT22;53236;43.666;18.444;2022-11-20T13:32:57;9.30;99.90
65462;DHT22;53236;43.666;18.444;2022-11-20T13:38:05;9.10;99.90
65462;DHT22;53236;43.666;18.444;2022-11-20T13:40:32;9.00;99.90
65462;DHT22;53236;43.666;18.444;2022-11-20T13:43:15;9.20;99.90
65462;DHT22;53236;43.666;18.444;2022-11-20T13:45:41;9.20;99.90
65462;DHT22;53236;43.666;18.444;2022-11-20T13:48:24;9.20;99.90
65462;DHT22;53236;43.666;18.444;2022-11-20T13:59:02;8.40;99.90
65462;DHT22;53236;43.666;18.444;2022-11-20T14:01:31;8.50;99.90
65462;DHT22;53236;43.666;18.444;2022-11-20T14:03:58;8.70;99.90
65462;DHT22;53236;43.666;18.444;2022-11-20T14:06:29;8.60;99.90
65462;DHT22;53236;43.666;18.444;2022-11-20T14:08:57;8.60;99.90
65462;DHT22;53236;43.666;18.444;2022-11-20T14:11:26;8.60;99.90
65462;DHT22;53236;43.666;18.444;2022-11-20T14:14:03;8.70;99.90
65462;DHT22;53236;43.666;18.444;2022-11-20T14:16:38;8.60;99.90
65462;DHT22;53236;43.666;18.444;2022-11-20T14:21:51;8.10;99.90
65462;DHT22;53236;43.666;18.444;2022-11-20T14:24:24;8.10;99.90
65462;DHT22;53236;43.666;18.444;2022-11-20T14:26:51;8.30;99.90
65462;DHT22;53236;43.666;18.444;2022-11-20T14:29:23;8.30;99.90
65462;DHT22;53236;43.666;18.444;2022-11-20T14:31:52;8.30;99.90
65462;DHT22;53236;43.666;18.444;2022-11-20T14:34:22;8.50;99.90
65462;DHT22;53236;43.666;18.444;2022-11-20T14:36:51;8.50;99.90
65462;DHT22;53236;43.666;18.444;2022-11-20T14:39:21;8.20;99.90
65462;DHT22;53236;43.666;18.444;2022-11-20T14:41:51;8.30;99.90
65462;DHT22;53236;43.666;18.444;2022-11-20T14:44:17;8.20;99.90
65462;DHT22;53236;43.666;18.444;2022-11-20T14:46:45;8.20;99.90
65462;DHT22;53236;43.666;18.444;2022-11-20T14:49:11;8.10;99.90
65462;DHT22;53236;43.666;18.444;2022-11-20T14:51:39;8.30;99.90
65462;DHT22;53236;43.666;18.444;2022-11-20T14:54:17;8.10;99.90
65462;DHT22;53236;43.666;18.444;2022-11-20T14:57:00;8.20;99.90
65462;DHT22;53236;43.666;18.444;2022-11-20T14:59:29;7.90;99.90
65462;DHT22;53236;43.666;18.444;2022-11-20T15:02:00;7.50;99.90
65462;DHT22;53236;43.666;18.444;2022-11-20T15:04:26;7.40;99.90
65462;DHT22;53236;43.666;18.444;2022-11-20T15:06:55;7.20;99.90
65462;DHT22;53236;43.666;18.444;2022-11-20T15:09:21;7.00;99.90
65462;DHT22;53236;43.666;18.444;2022-11-20T15:12:01;7.10;99.90
65462;DHT22;53236;43.666;18.444;2022-11-20T15:14:30;6.80;99.90
65462;DHT22;53236;43.666;18.444;2022-11-20T15:16:59;6.60;99.90
65462;DHT22;53236;43.666;18.444;2022-11-20T15:19:26;6.60;99.90
65462;DHT22;53236;43.666;18.444;2022-11-20T15:21:52;6.40;99.90
65462;DHT22;53236;43.666;18.444;2022-11-20T15:24:18;6.50;99.90
65462;DHT22;53236;43.666;18.444;2022-11-20T15:26:44;6.50;99.90
65462;DHT22;53236;43.666;18.444;2022-11-20T15:29:15;6.30;99.90
65462;DHT22;53236;43.666;18.444;2022-11-20T15:31:44;6.10;99.90
65462;DHT22;53236;43.666;18.444;2022-11-20T15:34:16;6.20;99.90
65462;DHT22;53236;43.666;18.444;2022-11-20T15:36:43;6.20;99.90
65462;DHT22;53236;43.666;18.444;2022-11-20T15:39:09;6.10;99.90
65462;DHT22;53236;43.666;18.444;2022-11-20T15:41:36;6.40;99.90
65462;DHT22;53236;43.666;18.444;2022-11-20T15:44:03;6.20;99.90
65462;DHT22;53236;43.666;18.444;2022-11-20T15:46:31;6.20;99.90
65462;DHT22;53236;43.666;18.444;2022-11-20T15:49:03;6.00;99.90
65462;DHT22;53236;43.666;18.444;2022-11-20T15:51:34;6.30;99.90
65462;DHT22;53236;43.666;18.444;2022-11-20T15:54:01;6.30;99.90
65462;DHT22;53236;43.666;18.444;2022-11-20T15:56:28;6.20;99.90
65462;DHT22;53236;43.666;18.444;2022-11-20T15:58:54;6.20;99.90
65462;DHT22;53236;43.666;18.444;2022-11-20T16:01:23;6.20;99.90
65462;DHT22;53236;43.666;18.444;2022-11-20T16:03:48;6.40;99.90
65462;DHT22;53236;43.666;18.444;2022-11-20T16:06:14;6.60;99.90
65462;DHT22;53236;43.666;18.444;2022-11-20T16:08:41;6.40;99.90
65462;DHT22;53236;43.666;18.444;2022-11-20T16:11:13;6.50;99.90
65462;DHT22;53236;43.666;18.444;2022-11-20T16:13:38;6.30;99.90
65462;DHT22;53236;43.666;18.444;2022-11-20T16:16:26;6.20;99.90
65462;DHT22;53236;43.666;18.444;2022-11-20T16:18:54;6.50;99.90
65462;DHT22;53236;43.666;18.444;2022-11-20T16:21:20;6.50;99.90
65462;DHT22;53236;43.666;18.444;2022-11-20T16:23:46;6.40;99.90
65462;DHT22;53236;43.666;18.444;2022-11-20T16:26:17;6.70;99.90
65462;DHT22;53236;43.666;18.444;2022-11-20T16:28:44;6.90;99.90
65462;DHT22;53236;43.666;18.444;2022-11-20T16:31:15;6.50;99.90
65462;DHT22;53236;43.666;18.444;2022-11-20T16:33:41;6.40;99.90
65462;DHT22;53236;43.666;18.444;2022-11-20T16:36:08;6.40;99.90
65462;DHT22;53236;43.666;18.444;2022-11-20T16:38:34;6.50;99.90
65462;DHT22;53236;43.666;18.444;2022-11-20T16:41:00;6.40;99.90
65462;DHT22;53236;43.666;18.444;2022-11-20T16:43:27;6.20;99.90
65462;DHT22;53236;43.666;18.444;2022-11-20T16:45:52;6.40;99.90
65462;DHT22;53236;43.666;18.444;2022-11-20T16:48:18;6.30;99.90
65462;DHT22;53236;43.666;18.444;2022-11-20T16:50:51;6.30;99.90
65462;DHT22;53236;43.666;18.444;2022-11-20T16:53:21;6.50;99.90
65462;DHT22;53236;43.666;18.444;2022-11-20T16:55:47;6.20;99.90
65462;DHT22;53236;43.666;18.444;2022-11-20T16:58:13;6.10;99.90
65462;DHT22;53236;43.666;18.444;2022-11-20T17:00:40;6.10;99.90
65462;DHT22;53236;43.666;18.444;2022-11-20T17:03:06;5.90;99.90
65462;DHT22;53236;43.666;18.444;2022-11-20T17:05:32;5.70;99.90
65462;DHT22;53236;43.666;18.444;2022-11-20T17:07:59;5.80;99.90
65462;DHT22;53236;43.666;18.444;2022-11-20T17:10:25;5.60;99.90